KGVE

Gordonsville Municipal Airport

Gordonsville, Virginia, USA
METAR KGVE 141315Z AUTO 22003KT 10SM CLR 22/19 A3000 RMK AO1 T02200193
Observed Flight Rules
Aug-14 @ 13:15 UTC (28 minutes ago) Visual Flight Rules
Wind Visibility Clouds
220° at 3 knots 10 miles
  • Clear skies
Temperatures Readings
Current 22°C / 72°F
Dewpoint 19°C / 66°F
Humidity 83%
Altimeter 30" Hg
Pressure 1016 hPa
Elevation 138
METAR KGVE 141315Z AUTO 22003KT 10SM CLR 22/19 A3000 RMK AO1 T02200193
Observed Flight Rules
Aug-14 @ 13:15 UTC
(28 minutes ago)
VFR
Wind Visibility
220° at 3 knots 10 miles
Clouds
  • Clear skies
Temperature Dewpoint
22°C / 72°F 19°C / 66°F
Humidity Altimeter Pressure
83% 30" Hg 1016 hPa